sensor_id;sensor_type;location;lat;lon;timestamp;pressure;altitude;pressure_sealevel;temperature;humidity
51359;BME280;37448;51.588;7.248;2023-04-26T00:01:19;101235.28;;;2.76;79.72
51359;BME280;37448;51.588;7.248;2023-04-26T00:03:19;101236.94;;;2.74;78.87
51359;BME280;37448;51.588;7.248;2023-04-26T00:05:20;101239.47;;;2.71;79.34
51359;BME280;37448;51.588;7.248;2023-04-26T00:07:22;101242.88;;;2.68;79.09
51359;BME280;37448;51.588;7.248;2023-04-26T00:09:23;101235.97;;;2.67;78.63
51359;BME280;37448;51.588;7.248;2023-04-26T00:11:24;101246.28;;;2.67;77.97
51359;BME280;37448;51.588;7.248;2023-04-26T00:13:25;101245.41;;;2.65;79.62
51359;BME280;37448;51.588;7.248;2023-04-26T00:15:25;101243.63;;;2.64;78.23
51359;BME280;37448;51.588;7.248;2023-04-26T00:17:25;101239.25;;;2.60;80.26
51359;BME280;37448;51.588;7.248;2023-04-26T00:19:26;101242.66;;;2.57;79.20
51359;BME280;37448;51.588;7.248;2023-04-26T00:21:26;101240.84;;;2.53;80.04
51359;BME280;37448;51.588;7.248;2023-04-26T00:23:27;101242.47;;;2.50;79.24
51359;BME280;37448;51.588;7.248;2023-04-26T00:25:28;101242.41;;;2.47;80.20
51359;BME280;37448;51.588;7.248;2023-04-26T00:27:28;101238.09;;;2.46;80.13
51359;BME280;37448;51.588;7.248;2023-04-26T00:29:29;101232.88;;;2.42;79.50
51359;BME280;37448;51.588;7.248;2023-04-26T00:31:29;101235.41;;;2.41;79.27
51359;BME280;37448;51.588;7.248;2023-04-26T00:33:30;101231.09;;;2.40;79.69
51359;BME280;37448;51.588;7.248;2023-04-26T00:35:30;101228.47;;;2.38;79.31
51359;BME280;37448;51.588;7.248;2023-04-26T00:37:30;101219.78;;;2.33;79.20
51359;BME280;37448;51.588;7.248;2023-04-26T00:39:31;101226.50;;;2.26;79.13
51359;BME280;37448;51.588;7.248;2023-04-26T00:41:31;101223.84;;;2.23;80.46
51359;BME280;37448;51.588;7.248;2023-04-26T00:43:32;101220.38;;;2.21;79.79
51359;BME280;37448;51.588;7.248;2023-04-26T00:45:33;101222.03;;;2.19;80.40
51359;BME280;37448;51.588;7.248;2023-04-26T00:47:34;101215.94;;;2.15;79.62
51359;BME280;37448;51.588;7.248;2023-04-26T00:49:35;101219.28;;;2.11;79.08
51359;BME280;37448;51.588;7.248;2023-04-26T00:51:35;101218.44;;;2.11;80.46
51359;BME280;37448;51.588;7.248;2023-04-26T00:53:36;101217.56;;;2.10;80.67
51359;BME280;37448;51.588;7.248;2023-04-26T00:55:36;101217.53;;;2.09;80.20
51359;BME280;37448;51.588;7.248;2023-04-26T00:57:38;101220.03;;;2.06;79.13
51359;BME280;37448;51.588;7.248;2023-04-26T00:59:38;101220.84;;;2.05;80.51
51359;BME280;37448;51.588;7.248;2023-04-26T01:01:39;101218.28;;;2.05;80.62
51359;BME280;37448;51.588;7.248;2023-04-26T01:03:41;101219.94;;;2.03;79.84
51359;BME280;37448;51.588;7.248;2023-04-26T01:05:45;101223.34;;;2.01;81.18
51359;BME280;37448;51.588;7.248;2023-04-26T01:07:45;101220.78;;;2.00;80.43
51359;BME280;37448;51.588;7.248;2023-04-26T01:09:47;101223.22;;;1.95;80.31
51359;BME280;37448;51.588;7.248;2023-04-26T01:11:49;101221.41;;;1.91;80.77
51359;BME280;37448;51.588;7.248;2023-04-26T01:13:50;101224.75;;;1.87;81.27
51359;BME280;37448;51.588;7.248;2023-04-26T01:15:51;101222.13;;;1.85;81.12
51359;BME280;37448;51.588;7.248;2023-04-26T01:17:51;101228.97;;;1.83;80.25
51359;BME280;37448;51.588;7.248;2023-04-26T01:19:52;101228.09;;;1.83;81.27
51359;BME280;37448;51.588;7.248;2023-04-26T01:21:53;101223.78;;;1.82;80.35
51359;BME280;37448;51.588;7.248;2023-04-26T01:23:54;101229.75;;;1.81;80.32
51359;BME280;37448;51.588;7.248;2023-04-26T01:25:55;101222.84;;;1.80;81.09
51359;BME280;37448;51.588;7.248;2023-04-26T01:27:55;101228.00;;;1.80;80.85
51359;BME280;37448;51.588;7.248;2023-04-26T01:29:58;101226.25;;;1.79;80.74
51359;BME280;37448;51.588;7.248;2023-04-26T01:31:59;101232.22;;;1.76;80.72
51359;BME280;37448;51.588;7.248;2023-04-26T01:34:01;101236.50;;;1.76;80.62
51359;BME280;37448;51.588;7.248;2023-04-26T01:36:02;101233.00;;;1.74;81.84
51359;BME280;37448;51.588;7.248;2023-04-26T01:38:06;101228.69;;;1.71;81.30
51359;BME280;37448;51.588;7.248;2023-04-26T01:40:08;101234.69;;;1.71;81.32
51359;BME280;37448;51.588;7.248;2023-04-26T01:42:10;101232.94;;;1.70;81.27
51359;BME280;37448;51.588;7.248;2023-04-26T01:44:10;101237.25;;;1.70;81.30
51359;BME280;37448;51.588;7.248;2023-04-26T01:46:11;101236.34;;;1.69;80.98
51359;BME280;37448;51.588;7.248;2023-04-26T01:48:12;101238.06;;;1.69;80.91
51359;BME280;37448;51.588;7.248;2023-04-26T01:50:12;101239.75;;;1.68;81.28
51359;BME280;37448;51.588;7.248;2023-04-26T01:52:13;101234.63;;;1.68;80.85
51359;BME280;37448;51.588;7.248;2023-04-26T01:54:13;101231.97;;;1.65;81.48
51359;BME280;37448;51.588;7.248;2023-04-26T01:56:14;101227.56;;;1.61;80.58
51359;BME280;37448;51.588;7.248;2023-04-26T01:58:15;101237.81;;;1.58;81.42
51359;BME280;37448;51.588;7.248;2023-04-26T02:00:16;101233.38;;;1.52;81.77
51359;BME280;37448;51.588;7.248;2023-04-26T02:02:16;101236.72;;;1.50;81.93
51359;BME280;37448;51.588;7.248;2023-04-26T02:04:17;101237.56;;;1.49;81.88
51359;BME280;37448;51.588;7.248;2023-04-26T02:06:18;101238.38;;;1.46;81.16
51359;BME280;37448;51.588;7.248;2023-04-26T02:08:19;101235.59;;;1.38;80.62
51359;BME280;37448;51.588;7.248;2023-04-26T02:10:19;101241.59;;;1.39;81.17
51359;BME280;37448;51.588;7.248;2023-04-26T02:12:19;101240.66;;;1.35;82.01
51359;BME280;37448;51.588;7.248;2023-04-26T02:14:20;101238.91;;;1.34;82.54
51359;BME280;37448;51.588;7.248;2023-04-26T02:16:22;101239.78;;;1.35;82.54
51359;BME280;37448;51.588;7.248;2023-04-26T02:18:22;101229.28;;;1.27;81.75
51359;BME280;37448;51.588;7.248;2023-04-26T02:20:24;101237.06;;;1.30;82.46
51359;BME280;37448;51.588;7.248;2023-04-26T02:22:24;101240.47;;;1.29;82.52
51359;BME280;37448;51.588;7.248;2023-04-26T02:24:25;101240.41;;;1.26;82.99
51359;BME280;37448;51.588;7.248;2023-04-26T02:26:26;101243.88;;;1.28;82.48
51359;BME280;37448;51.588;7.248;2023-04-26T02:28:26;101235.38;;;1.31;82.69
51359;BME280;37448;51.588;7.248;2023-04-26T02:30:29;101236.25;;;1.31;82.77
51359;BME280;37448;51.588;7.248;2023-04-26T02:32:29;101239.63;;;1.30;82.58
51359;BME280;37448;51.588;7.248;2023-04-26T02:34:31;101244.78;;;1.30;83.27
51359;BME280;37448;51.588;7.248;2023-04-26T02:36:32;101240.47;;;1.29;83.04
51359;BME280;37448;51.588;7.248;2023-04-26T02:38:33;101242.97;;;1.26;82.97
51359;BME280;37448;51.588;7.248;2023-04-26T02:40:35;101232.47;;;1.18;81.87
51359;BME280;37448;51.588;7.248;2023-04-26T02:42:35;101238.41;;;1.16;82.72
51359;BME280;37448;51.588;7.248;2023-04-26T02:44:36;101239.91;;;1.07;82.95
51359;BME280;37448;51.588;7.248;2023-04-26T02:46:38;101236.34;;;1.02;82.88
51359;BME280;37448;51.588;7.248;2023-04-26T02:48:39;101231.09;;;0.99;83.22
51359;BME280;37448;51.588;7.248;2023-04-26T02:50:39;101225.81;;;0.93;83.02
51359;BME280;37448;51.588;7.248;2023-04-26T02:52:40;101225.81;;;0.94;83.52
51359;BME280;37448;51.588;7.248;2023-04-26T02:54:41;101224.13;;;0.95;83.70
51359;BME280;37448;51.588;7.248;2023-04-26T02:56:41;101220.75;;;0.96;83.81
51359;BME280;37448;51.588;7.248;2023-04-26T02:58:41;101228.47;;;0.96;83.49
51359;BME280;37448;51.588;7.248;2023-04-26T03:00:45;101221.59;;;0.96;83.61
51359;BME280;37448;51.588;7.248;2023-04-26T03:02:47;101216.44;;;0.95;83.87
51359;BME280;37448;51.588;7.248;2023-04-26T03:04:47;101223.31;;;0.96;83.30
51359;BME280;37448;51.588;7.248;2023-04-26T03:06:48;101221.59;;;0.96;83.32
51359;BME280;37448;51.588;7.248;2023-04-26T03:08:49;101229.38;;;0.98;83.65
51359;BME280;37448;51.588;7.248;2023-04-26T03:10:49;101225.88;;;0.96;83.70
51359;BME280;37448;51.588;7.248;2023-04-26T03:12:50;101222.41;;;0.94;83.56
51359;BME280;37448;51.588;7.248;2023-04-26T03:14:50;101221.44;;;0.90;83.33
51359;BME280;37448;51.588;7.248;2023-04-26T03:16:51;101225.63;;;0.87;82.60
51359;BME280;37448;51.588;7.248;2023-04-26T03:18:52;101223.00;;;0.85;83.14
51359;BME280;37448;51.588;7.248;2023-04-26T03:20:53;101218.66;;;0.82;83.33
51359;BME280;37448;51.588;7.248;2023-04-26T03:22:54;101220.31;;;0.80;83.54
51359;BME280;37448;51.588;7.248;2023-04-26T03:24:54;101228.00;;;0.79;83.44
51359;BME280;37448;51.588;7.248;2023-04-26T03:26:56;101225.38;;;0.77;83.34
51359;BME280;37448;51.588;7.248;2023-04-26T03:28:57;101217.63;;;0.76;83.48
51359;BME280;37448;51.588;7.248;2023-04-26T03:30:58;101217.63;;;0.76;83.83
51359;BME280;37448;51.588;7.248;2023-04-26T03:32:58;101217.63;;;0.76;83.62
51359;BME280;37448;51.588;7.248;2023-04-26T03:34:59;101213.34;;;0.76;83.81
51359;BME280;37448;51.588;7.248;2023-04-26T03:37:01;101217.72;;;0.79;83.49
51359;BME280;37448;51.588;7.248;2023-04-26T03:39:02;101214.25;;;0.78;83.92
51359;BME280;37448;51.588;7.248;2023-04-26T03:41:04;101217.63;;;0.76;84.19
51359;BME280;37448;51.588;7.248;2023-04-26T03:43:05;101211.44;;;0.69;82.97
51359;BME280;37448;51.588;7.248;2023-04-26T03:45:06;101216.56;;;0.69;83.74
51359;BME280;37448;51.588;7.248;2023-04-26T03:47:07;101211.34;;;0.66;83.85
51359;BME280;37448;51.588;7.248;2023-04-26T03:49:07;101218.16;;;0.64;83.66
51359;BME280;37448;51.588;7.248;2023-04-26T03:51:08;101211.13;;;0.58;83.92
51359;BME280;37448;51.588;7.248;2023-04-26T03:53:08;101218.78;;;0.56;83.50
51359;BME280;37448;51.588;7.248;2023-04-26T03:55:09;101217.88;;;0.54;83.73
51359;BME280;37448;51.588;7.248;2023-04-26T03:57:11;101216.13;;;0.53;84.00
51359;BME280;37448;51.588;7.248;2023-04-26T03:59:11;101219.56;;;0.54;83.76
51359;BME280;37448;51.588;7.248;2023-04-26T04:01:12;101210.97;;;0.53;83.85
51359;BME280;37448;51.588;7.248;2023-04-26T04:03:12;101221.25;;;0.53;84.36
51359;BME280;37448;51.588;7.248;2023-04-26T04:05:13;101217.88;;;0.54;84.49
51359;BME280;37448;51.588;7.248;2023-04-26T04:07:15;101217.00;;;0.54;84.32
51359;BME280;37448;51.588;7.248;2023-04-26T04:09:15;101213.53;;;0.52;84.53
51359;BME280;37448;51.588;7.248;2023-04-26T04:11:16;101213.38;;;0.47;83.78
51359;BME280;37448;51.588;7.248;2023-04-26T04:13:16;101215.88;;;0.44;83.18
51359;BME280;37448;51.588;7.248;2023-04-26T04:15:18;101219.09;;;0.37;83.56
51359;BME280;37448;51.588;7.248;2023-04-26T04:17:20;101218.16;;;0.35;83.77
51359;BME280;37448;51.588;7.248;2023-04-26T04:19:21;101218.88;;;0.31;83.14
51359;BME280;37448;51.588;7.248;2023-04-26T04:21:21;101218.78;;;0.27;84.01
51359;BME280;37448;51.588;7.248;2023-04-26T04:23:22;101213.56;;;0.24;84.23
51359;BME280;37448;51.588;7.248;2023-04-26T04:25:23;101212.66;;;0.22;84.42
51359;BME280;37448;51.588;7.248;2023-04-26T04:27:26;101222.09;;;0.23;84.27
51359;BME280;37448;51.588;7.248;2023-04-26T04:29:26;101217.78;;;0.22;84.58
51359;BME280;37448;51.588;7.248;2023-04-26T04:31:27;101216.13;;;0.24;84.29
51359;BME280;37448;51.588;7.248;2023-04-26T04:33:28;101218.72;;;0.24;84.91
51359;BME280;37448;51.588;7.248;2023-04-26T04:35:30;101217.94;;;0.27;84.21
51359;BME280;37448;51.588;7.248;2023-04-26T04:37:33;101220.53;;;0.28;84.70
51359;BME280;37448;51.588;7.248;2023-04-26T04:39:34;101225.75;;;0.32;85.31
51359;BME280;37448;51.588;7.248;2023-04-26T04:41:35;101232.72;;;0.36;85.06
51359;BME280;37448;51.588;7.248;2023-04-26T04:43:36;101219.94;;;0.37;84.34
51359;BME280;37448;51.588;7.248;2023-04-26T04:45:36;101220.00;;;0.39;84.95
51359;BME280;37448;51.588;7.248;2023-04-26T04:47:39;101226.91;;;0.41;84.75
51359;BME280;37448;51.588;7.248;2023-04-26T04:49:40;101228.72;;;0.44;85.21
51359;BME280;37448;51.588;7.248;2023-04-26T04:51:41;101237.44;;;0.49;85.23
51359;BME280;37448;51.588;7.248;2023-04-26T04:53:41;101234.03;;;0.50;85.35
51359;BME280;37448;51.588;7.248;2023-04-26T04:55:52;101235.81;;;0.53;85.46
51359;BME280;37448;51.588;7.248;2023-04-26T04:57:52;101233.28;;;0.54;85.37
51359;BME280;37448;51.588;7.248;2023-04-26T04:59:53;101230.84;;;0.59;85.86
51359;BME280;37448;51.588;7.248;2023-04-26T05:01:53;101234.41;;;0.63;85.72
51359;BME280;37448;51.588;7.248;2023-04-26T05:03:54;101228.44;;;0.64;85.71
51359;BME280;37448;51.588;7.248;2023-04-26T05:05:54;101239.66;;;0.67;85.51
51359;BME280;37448;51.588;7.248;2023-04-26T05:07:55;101238.00;;;0.69;85.92
51359;BME280;37448;51.588;7.248;2023-04-26T05:09:56;101243.28;;;0.74;85.96
51359;BME280;37448;51.588;7.248;2023-04-26T05:11:56;101239.06;;;0.76;86.06
51359;BME280;37448;51.588;7.248;2023-04-26T05:13:57;101237.44;;;0.80;86.34
51359;BME280;37448;51.588;7.248;2023-04-26T05:15:58;101248.72;;;0.85;86.35
51359;BME280;37448;51.588;7.248;2023-04-26T05:17:58;101243.72;;;0.90;86.64
51359;BME280;37448;51.588;7.248;2023-04-26T05:19:59;101243.81;;;0.93;86.43
51359;BME280;37448;51.588;7.248;2023-04-26T05:22:03;101255.09;;;0.98;86.68
51359;BME280;37448;51.588;7.248;2023-04-26T05:24:04;101250.09;;;1.04;86.89
51359;BME280;37448;51.588;7.248;2023-04-26T05:26:06;101255.53;;;1.13;87.31
51359;BME280;37448;51.588;7.248;2023-04-26T05:28:27;101260.81;;;1.20;87.28
51359;BME280;37448;51.588;7.248;2023-04-26T05:30:42;101262.91;;;1.33;86.82
51359;BME280;37448;51.588;7.248;2023-04-26T05:32:58;101257.03;;;1.39;86.94
51359;BME280;37448;51.588;7.248;2023-04-26T05:35:13;101265.19;;;1.56;87.42
51359;BME280;37448;51.588;7.248;2023-04-26T05:37:14;101268.00;;;1.65;87.37
51359;BME280;37448;51.588;7.248;2023-04-26T05:39:14;101262.31;;;1.79;86.71
51359;BME280;37448;51.588;7.248;2023-04-26T05:41:15;101263.47;;;1.90;86.62
51359;BME280;37448;51.588;7.248;2023-04-26T05:43:16;101262.06;;;2.03;87.17
51359;BME280;37448;51.588;7.248;2023-04-26T05:45:17;101266.69;;;2.18;86.92
51359;BME280;37448;51.588;7.248;2023-04-26T05:47:17;101255.75;;;2.28;86.51
51359;BME280;37448;51.588;7.248;2023-04-26T05:49:18;101255.13;;;2.39;85.40
51359;BME280;37448;51.588;7.248;2023-04-26T05:51:19;101260.69;;;2.57;86.30
51359;BME280;37448;51.588;7.248;2023-04-26T05:53:20;101269.59;;;2.72;87.15
51359;BME280;37448;51.588;7.248;2023-04-26T05:55:21;101270.66;;;2.82;85.81
51359;BME280;37448;51.588;7.248;2023-04-26T05:57:21;101270.91;;;2.94;85.76
51359;BME280;37448;51.588;7.248;2023-04-26T05:59:21;101281.44;;;3.05;86.19
51359;BME280;37448;51.588;7.248;2023-04-26T06:01:22;101276.50;;;3.18;85.78
51359;BME280;37448;51.588;7.248;2023-04-26T06:03:23;101277.22;;;3.55;85.00
51359;BME280;37448;51.588;7.248;2023-04-26T06:05:24;101277.13;;;4.02;84.70
51359;BME280;37448;51.588;7.248;2023-04-26T06:07:24;101279.41;;;4.41;85.78
51359;BME280;37448;51.588;7.248;2023-04-26T06:09:24;101279.75;;;4.64;80.88
51359;BME280;37448;51.588;7.248;2023-04-26T06:11:25;101285.28;;;4.94;83.17
51359;BME280;37448;51.588;7.248;2023-04-26T06:13:27;101278.63;;;5.17;76.78
51359;BME280;37448;51.588;7.248;2023-04-26T06:15:27;101284.25;;;5.61;78.09
51359;BME280;37448;51.588;7.248;2023-04-26T06:17:28;101293.31;;;6.03;81.08
51359;BME280;37448;51.588;7.248;2023-04-26T06:19:29;101289.25;;;6.44;81.67
51359;BME280;37448;51.588;7.248;2023-04-26T06:21:29;101285.88;;;6.56;76.69
51359;BME280;37448;51.588;7.248;2023-04-26T06:23:30;101286.84;;;6.83;75.43
51359;BME280;37448;51.588;7.248;2023-04-26T06:25:30;101290.47;;;7.13;78.23
51359;BME280;37448;51.588;7.248;2023-04-26T06:27:31;101287.94;;;7.55;80.94
51359;BME280;37448;51.588;7.248;2023-04-26T06:29:32;101286.25;;;7.90;76.97
51359;BME280;37448;51.588;7.248;2023-04-26T06:31:34;101297.47;;;8.23;77.21
51359;BME280;37448;51.588;7.248;2023-04-26T06:33:35;101292.22;;;8.48;76.30
51359;BME280;37448;51.588;7.248;2023-04-26T06:35:39;101292.16;;;8.79;72.97
51359;BME280;37448;51.588;7.248;2023-04-26T06:37:39;101290.38;;;8.94;71.80
51359;BME280;37448;51.588;7.248;2023-04-26T06:39:41;101293.88;;;8.89;63.54
51359;BME280;37448;51.588;7.248;2023-04-26T06:41:41;101299.19;;;8.52;61.69
51359;BME280;37448;51.588;7.248;2023-04-26T06:43:43;101298.00;;;9.37;66.01
51359;BME280;37448;51.588;7.248;2023-04-26T06:45:53;101300.41;;;9.63;63.44
51359;BME280;37448;51.588;7.248;2023-04-26T06:47:53;101311.53;;;9.89;69.81
51359;BME280;37448;51.588;7.248;2023-04-26T06:49:57;101300.03;;;10.12;60.62
51359;BME280;37448;51.588;7.248;2023-04-26T06:51:58;101305.16;;;10.21;60.69
51359;BME280;37448;51.588;7.248;2023-04-26T06:53:58;101299.25;;;10.03;57.42
51359;BME280;37448;51.588;7.248;2023-04-26T06:56:00;101297.00;;;10.57;65.91
51359;BME280;37448;51.588;7.248;2023-04-26T06:58:00;101302.41;;;10.41;60.08
51359;BME280;37448;51.588;7.248;2023-04-26T07:00:00;101298.53;;;10.78;65.93
51359;BME280;37448;51.588;7.248;2023-04-26T07:02:01;101293.94;;;10.99;61.63
51359;BME280;37448;51.588;7.248;2023-04-26T07:04:03;101293.84;;;11.05;59.18
51359;BME280;37448;51.588;7.248;2023-04-26T07:06:03;101289.25;;;11.23;62.15
51359;BME280;37448;51.588;7.248;2023-04-26T07:08:04;101290.84;;;11.34;64.55
51359;BME280;37448;51.588;7.248;2023-04-26T07:10:05;101290.00;;;11.31;62.22
51359;BME280;37448;51.588;7.248;2023-04-26T07:12:06;101293.22;;;11.50;58.60
51359;BME280;37448;51.588;7.248;2023-04-26T07:14:07;101295.19;;;11.32;53.48
51359;BME280;37448;51.588;7.248;2023-04-26T07:16:07;101300.94;;;11.59;53.69
51359;BME280;37448;51.588;7.248;2023-04-26T07:18:07;101290.97;;;11.82;58.04
51359;BME280;37448;51.588;7.248;2023-04-26T07:20:08;101288.31;;;11.85;58.18
51359;BME280;37448;51.588;7.248;2023-04-26T07:22:09;101288.59;;;11.66;53.75
51359;BME280;37448;51.588;7.248;2023-04-26T07:24:10;101290.19;;;11.76;60.85
51359;BME280;37448;51.588;7.248;2023-04-26T07:26:12;101290.41;;;11.62;58.62
51359;BME280;37448;51.588;7.248;2023-04-26T07:28:13;101292.16;;;11.62;60.55
51359;BME280;37448;51.588;7.248;2023-04-26T07:30:13;101297.72;;;11.40;55.93
51359;BME280;37448;51.588;7.248;2023-04-26T07:32:14;101301.16;;;11.44;55.72
51359;BME280;37448;51.588;7.248;2023-04-26T07:34:14;101297.22;;;11.13;54.88
51359;BME280;37448;51.588;7.248;2023-04-26T07:36:15;101293.78;;;11.08;58.22
51359;BME280;37448;51.588;7.248;2023-04-26T07:38:15;101296.59;;;10.94;61.06
51359;BME280;37448;51.588;7.248;2023-04-26T07:40:18;101298.88;;;10.45;52.63
51359;BME280;37448;51.588;7.248;2023-04-26T07:42:21;101295.13;;;10.70;54.65
51359;BME280;37448;51.588;7.248;2023-04-26T07:44:22;101286.56;;;11.27;59.03
51359;BME280;37448;51.588;7.248;2023-04-26T07:46:22;101283.59;;;11.52;57.85
51359;BME280;37448;51.588;7.248;2023-04-26T07:48:22;101294.31;;;11.90;60.61
51359;BME280;37448;51.588;7.248;2023-04-26T07:50:23;101287.31;;;11.92;57.62
51359;BME280;37448;51.588;7.248;2023-04-26T07:52:24;101286.41;;;11.96;52.84
51359;BME280;37448;51.588;7.248;2023-04-26T07:54:24;101285.44;;;12.02;53.39
51359;BME280;37448;51.588;7.248;2023-04-26T07:56:24;101287.72;;;11.67;52.83
51359;BME280;37448;51.588;7.248;2023-04-26T07:58:25;101291.63;;;11.38;54.29
51359;BME280;37448;51.588;7.248;2023-04-26T08:00:25;101283.91;;;11.30;52.81
51359;BME280;37448;51.588;7.248;2023-04-26T08:02:26;101289.28;;;10.49;51.28
51359;BME280;37448;51.588;7.248;2023-04-26T08:04:31;101291.94;;;10.40;54.16
51359;BME280;37448;51.588;7.248;2023-04-26T08:06:33;101291.56;;;9.85;51.29
51359;BME280;37448;51.588;7.248;2023-04-26T08:08:34;101295.31;;;9.48;53.99
51359;BME280;37448;51.588;7.248;2023-04-26T08:10:39;101291.19;;;9.02;54.24
51359;BME280;37448;51.588;7.248;2023-04-26T08:12:40;101298.31;;;8.59;54.22
51359;BME280;37448;51.588;7.248;2023-04-26T08:14:41;101293.97;;;8.43;55.32
51359;BME280;37448;51.588;7.248;2023-04-26T08:16:42;101296.59;;;8.24;55.91
51359;BME280;37448;51.588;7.248;2023-04-26T08:18:43;101300.06;;;8.29;57.99
51359;BME280;37448;51.588;7.248;2023-04-26T08:20:43;101287.91;;;8.41;58.61
51359;BME280;37448;51.588;7.248;2023-04-26T08:22:43;101286.16;;;8.55;53.31
51359;BME280;37448;51.588;7.248;2023-04-26T08:24:49;101283.44;;;8.96;58.28
51359;BME280;37448;51.588;7.248;2023-04-26T08:26:50;101279.03;;;9.04;54.92
51359;BME280;37448;51.588;7.248;2023-04-26T08:28:50;101279.81;;;9.22;51.60
51359;BME280;37448;51.588;7.248;2023-04-26T08:30:51;101283.25;;;9.33;58.22
51359;BME280;37448;51.588;7.248;2023-04-26T08:32:51;101284.84;;;9.51;53.91
51359;BME280;37448;51.588;7.248;2023-04-26T08:34:51;101289.97;;;9.65;53.52
51359;BME280;37448;51.588;7.248;2023-04-26T08:36:52;101284.47;;;10.01;56.95
51359;BME280;37448;51.588;7.248;2023-04-26T08:38:52;101281.75;;;10.16;57.10
51359;BME280;37448;51.588;7.248;2023-04-26T08:40:53;101292.88;;;10.32;52.17
51359;BME280;37448;51.588;7.248;2023-04-26T08:42:55;101289.41;;;10.33;51.91
51359;BME280;37448;51.588;7.248;2023-04-26T08:45:00;101285.81;;;10.44;55.28
51359;BME280;37448;51.588;7.248;2023-04-26T08:47:17;101292.97;;;10.23;51.40
51359;BME280;37448;51.588;7.248;2023-04-26T08:49:41;101287.53;;;10.51;54.33
51359;BME280;37448;51.588;7.248;2023-04-26T08:51:43;101283.63;;;10.85;53.90
51359;BME280;37448;51.588;7.248;2023-04-26T08:53:45;101281.44;;;11.19;55.31
51359;BME280;37448;51.588;7.248;2023-04-26T08:55:47;101284.34;;;10.98;47.48
51359;BME280;37448;51.588;7.248;2023-04-26T08:57:49;101287.69;;;11.70;51.18
51359;BME280;37448;51.588;7.248;2023-04-26T08:59:50;101291.88;;;11.21;44.78
51359;BME280;37448;51.588;7.248;2023-04-26T09:01:52;101294.19;;;11.41;48.68
51359;BME280;37448;51.588;7.248;2023-04-26T09:03:53;101293.72;;;11.74;50.67
51359;BME280;37448;51.588;7.248;2023-04-26T09:05:54;101293.03;;;11.61;48.57
51359;BME280;37448;51.588;7.248;2023-04-26T09:07:56;101294.31;;;11.90;51.15
51359;BME280;37448;51.588;7.248;2023-04-26T09:10:00;101293.22;;;12.08;50.34
51359;BME280;37448;51.588;7.248;2023-04-26T09:12:01;101276.88;;;12.41;49.56
51359;BME280;37448;51.588;7.248;2023-04-26T09:14:02;101285.69;;;12.82;51.23
51359;BME280;37448;51.588;7.248;2023-04-26T09:16:02;101281.47;;;13.17;49.77
51359;BME280;37448;51.588;7.248;2023-04-26T09:20:28;101281.53;;;13.14;42.54
51359;BME280;37448;51.588;7.248;2023-04-26T09:22:35;101285.56;;;13.69;44.47
51359;BME280;37448;51.588;7.248;2023-04-26T09:24:45;101285.28;;;13.80;46.09
51359;BME280;37448;51.588;7.248;2023-04-26T09:27:00;101292.84;;;13.57;45.30
51359;BME280;37448;51.588;7.248;2023-04-26T09:31:10;101295.41;;;12.78;43.64
51359;BME280;37448;51.588;7.248;2023-04-26T09:33:12;101293.38;;;11.96;48.51
51359;BME280;37448;51.588;7.248;2023-04-26T09:35:33;101294.19;;;11.43;45.63
51359;BME280;37448;51.588;7.248;2023-04-26T09:37:34;101292.28;;;10.88;48.82
51359;BME280;37448;51.588;7.248;2023-04-26T09:39:40;101299.78;;;10.40;47.27
51359;BME280;37448;51.588;7.248;2023-04-26T09:41:41;101301.19;;;9.78;47.17
51359;BME280;37448;51.588;7.248;2023-04-26T09:43:43;101306.56;;;9.53;49.23
51359;BME280;37448;51.588;7.248;2023-04-26T09:47:53;101297.19;;;9.23;54.08
51359;BME280;37448;51.588;7.248;2023-04-26T09:49:54;101291.19;;;9.08;53.98
51359;BME280;37448;51.588;7.248;2023-04-26T09:52:02;101294.72;;;8.95;52.58
51359;BME280;37448;51.588;7.248;2023-04-26T09:54:03;101290.44;;;8.84;53.61
51359;BME280;37448;51.588;7.248;2023-04-26T09:58:09;101286.13;;;8.75;53.39
51359;BME280;37448;51.588;7.248;2023-04-26T10:00:10;101288.63;;;8.99;55.39
51359;BME280;37448;51.588;7.248;2023-04-26T10:02:17;101287.66;;;9.18;53.36
51359;BME280;37448;51.588;7.248;2023-04-26T10:04:18;101281.63;;;9.13;52.25
51359;BME280;37448;51.588;7.248;2023-04-26T10:06:18;101281.50;;;9.30;52.63
51359;BME280;37448;51.588;7.248;2023-04-26T10:08:19;101278.81;;;9.46;53.55
51359;BME280;37448;51.588;7.248;2023-04-26T10:10:19;101278.78;;;9.52;52.35
51359;BME280;37448;51.588;7.248;2023-04-26T10:12:20;101276.88;;;9.71;53.78
51359;BME280;37448;51.588;7.248;2023-04-26T10:14:21;101278.72;;;9.58;48.17
51359;BME280;37448;51.588;7.248;2023-04-26T10:16:22;101279.53;;;9.68;49.33
51359;BME280;37448;51.588;7.248;2023-04-26T10:18:22;101273.38;;;9.79;53.58
51359;BME280;37448;51.588;7.248;2023-04-26T10:20:26;101270.84;;;9.66;52.27
51359;BME280;37448;51.588;7.248;2023-04-26T10:22:31;101278.78;;;9.52;50.50
51359;BME280;37448;51.588;7.248;2023-04-26T10:24:36;101269.34;;;9.34;48.26
51359;BME280;37448;51.588;7.248;2023-04-26T10:26:53;101273.63;;;9.40;49.91
51359;BME280;37448;51.588;7.248;2023-04-26T10:28:56;101270.25;;;9.25;50.01
51359;BME280;37448;51.588;7.248;2023-04-26T10:30:58;101269.44;;;9.15;52.81
51359;BME280;37448;51.588;7.248;2023-04-26T10:35:12;101271.19;;;9.18;55.20
51359;BME280;37448;51.588;7.248;2023-04-26T10:37:16;101265.94;;;9.19;54.94
51359;BME280;37448;51.588;7.248;2023-04-26T10:39:18;101274.56;;;9.31;54.52
51359;BME280;37448;51.588;7.248;2023-04-26T10:41:33;101274.53;;;9.37;54.77
51359;BME280;37448;51.588;7.248;2023-04-26T10:43:34;101272.81;;;9.33;53.92
51359;BME280;37448;51.588;7.248;2023-04-26T10:45:35;101268.31;;;9.57;50.08
51359;BME280;37448;51.588;7.248;2023-04-26T10:47:36;101254.81;;;10.10;54.54
51359;BME280;37448;51.588;7.248;2023-04-26T10:49:43;101256.78;;;10.75;53.46
51359;BME280;37448;51.588;7.248;2023-04-26T10:52:18;101250.63;;;11.42;50.01
51359;BME280;37448;51.588;7.248;2023-04-26T10:54:19;101248.72;;;11.52;50.50